Dutton, Michigan
Current Conditions -  °F | °C
As of 9:53 PM on Saturday 25 Oct 2014 (Local Time) from KGRR Reporting Station
Clear Clear  
Wind Chill: 55°   Ceiling: Unl
Heat Index: 55°   Visibility: 10mi
Dew Point: 36°   Wind: 12mph
Humidity: 49%   Direction: 280°W
Pressure: 29.86"   Gusts: NA
Location:  42.7912°N, 85.5517°W
Report Text: KGRR 260153Z 28010KT 10SM CLR 13/02 A2986 RMK AO2 SLP111 T01280022
Loading
Personal Weather Stations






























Interactive Weather Map
Tropical Storm Tracking
New forecast layout! Learn more

10-Day Weather Forecast

Advertisements
Track Severe Weather on mobile